Time;durP1;ratioP1;P1;durP2;ratioP2;P2;SDS_P1;SDS_P2;PMS_P1;PMS_P2;Temp;Humidity;BMP_temperature;BMP_pressure;BME280_temperature;BME280_humidity;BME280_pressure;Samples;Min_cycle;Max_cycle;Signal;HPM_P1;HPM_P2
2021/03/31 00:04:52;;;;;;;34.93;24.00;;;;;;;6.42;84.67;100980.25;232587;1174;116087;-64
2021/03/31 00:09:56;;;;;;;34.43;21.43;;;;;;;6.46;85.52;100980.72;232921;1174;115385;-64
2021/03/31 00:14:59;;;;;;;31.70;21.45;;;;;;;6.49;85.25;100980.37;232758;1174;115844;-64
2021/03/31 00:20:04;;;;;;;33.77;20.63;;;;;;;6.50;84.66;100982.02;233976;1174;115655;-68
2021/03/31 00:25:08;;;;;;;34.60;21.70;;;;;;;6.33;84.31;100974.20;235092;1174;116374;-67
2021/03/31 00:30:15;;;;;;;41.60;25.95;;;;;;;6.25;84.87;100974.26;233462;1174;116169;-67
2021/03/31 00:35:19;;;;;;;31.93;21.60;;;;;;;6.25;84.58;100963.66;235191;1174;118012;-67
2021/03/31 00:40:26;;;;;;;41.73;25.20;;;;;;;6.14;84.64;100971.18;233800;1174;115987;-67
2021/03/31 00:45:31;;;;;;;36.78;22.00;;;;;;;6.07;84.56;100965.79;232959;1169;116254;-66
2021/03/31 00:50:56;;;;;;;40.57;28.77;;;;;;;5.90;85.23;100969.52;232553;1174;116180;-67
2021/03/31 00:56:01;;;;;;;36.28;25.93;;;;;;;5.81;85.05;100959.97;232625;1174;116283;-67
2021/03/31 01:01:05;;;;;;;37.83;26.40;;;;;;;5.77;85.83;100959.48;232548;1174;116497;-67
2021/03/31 01:06:10;;;;;;;35.65;22.05;;;;;;;5.60;84.94;100957.90;233823;1174;116754;-68
2021/03/31 01:11:27;;;;;;;37.40;24.77;;;;;;;5.50;85.36;100958.13;232560;1174;117815;-69
2021/03/31 01:16:38;;;;;;;36.03;25.80;;;;;;;5.51;85.27;100956.28;232557;1166;116377;-69
2021/03/31 01:22:09;;;;;;;39.48;25.43;;;;;;;5.48;85.43;100949.54;232538;1174;117169;-69
2021/03/31 01:27:19;;;;;;;34.90;23.83;;;;;;;5.39;85.83;100954.03;232591;1174;116971;-70
2021/03/31 01:32:40;;;;;;;39.07;25.77;;;;;;;5.30;86.00;100941.83;232560;1170;203449;-69
2021/03/31 01:37:59;;;;;;;46.00;26.90;;;;;;;5.26;86.23;100937.05;232843;1174;116597;-68
2021/03/31 01:43:17;;;;;;;38.83;25.30;;;;;;;5.12;86.23;100937.77;232548;1174;116672;-69
2021/03/31 01:48:27;;;;;;;35.60;22.60;;;;;;;5.06;85.95;100929.52;232506;1174;116777;-67
2021/03/31 01:53:32;;;;;;;32.65;22.45;;;;;;;4.96;86.26;100933.34;233035;1174;117554;-68
2021/03/31 01:58:38;;;;;;;28.93;21.20;;;;;;;4.85;86.81;100928.43;232527;1174;116203;-68
2021/03/31 02:03:44;;;;;;;28.13;21.83;;;;;;;4.80;87.78;100918.36;233485;1174;116041;-66
2021/03/31 02:08:48;;;;;;;28.47;21.07;;;;;;;4.92;87.69;100932.84;232472;1174;115735;-67
2021/03/31 02:13:59;;;;;;;32.40;22.60;;;;;;;4.98;86.90;100921.61;232971;1174;115769;-66
2021/03/31 02:19:04;;;;;;;40.50;25.70;;;;;;;5.04;85.93;100925.40;233864;1174;116570;-66
2021/03/31 02:24:08;;;;;;;34.73;22.23;;;;;;;4.93;86.08;100917.82;233111;1174;116382;-66
2021/03/31 02:29:10;;;;;;;40.35;24.85;;;;;;;4.93;85.56;100916.00;233469;1175;115857;-65
2021/03/31 02:34:15;;;;;;;33.10;23.47;;;;;;;4.87;86.17;100919.34;233041;1174;117011;-66
2021/03/31 02:39:21;;;;;;;33.37;22.30;;;;;;;4.87;85.75;100915.88;235038;1174;116852;-67
2021/03/31 02:44:27;;;;;;;37.93;26.60;;;;;;;4.79;85.32;100910.60;235027;1174;116303;-66
2021/03/31 02:49:32;;;;;;;37.00;25.78;;;;;;;4.77;84.92;100913.41;234732;1174;116193;-65
2021/03/31 02:54:35;;;;;;;34.73;20.93;;;;;;;4.68;85.30;100906.48;233689;1174;117457;-66
2021/03/31 02:59:42;;;;;;;39.80;25.97;;;;;;;4.59;85.58;100912.77;232795;1174;115252;-65
2021/03/31 03:04:48;;;;;;;41.43;25.73;;;;;;;4.55;86.16;100908.83;233303;1174;115948;-63
2021/03/31 03:09:54;;;;;;;40.33;26.27;;;;;;;4.57;86.11;100906.85;233326;1174;116098;-64
2021/03/31 03:14:58;;;;;;;38.27;25.40;;;;;;;4.54;86.61;100908.02;232782;1174;116680;-66
2021/03/31 03:20:03;;;;;;;32.15;24.85;;;;;;;4.56;86.25;100910.48;232693;1174;115465;-67
2021/03/31 03:25:09;;;;;;;36.57;25.90;;;;;;;4.55;85.10;100901.73;233064;1174;116510;-67
2021/03/31 03:30:15;;;;;;;38.75;26.80;;;;;;;4.33;85.30;100895.30;233197;1172;115882;-67
2021/03/31 03:35:27;;;;;;;30.88;23.15;;;;;;;4.14;86.66;100900.92;232681;1174;115600;-68
2021/03/31 03:40:30;;;;;;;45.20;29.40;;;;;;;4.09;87.32;100883.92;233200;1176;116638;-67
2021/03/31 03:45:40;;;;;;;37.10;24.03;;;;;;;4.06;87.97;100877.98;232678;1174;116078;-66
2021/03/31 03:50:45;;;;;;;33.65;21.05;;;;;;;4.03;88.64;100873.03;232662;1175;116259;-67
2021/03/31 03:55:50;;;;;;;41.37;27.23;;;;;;;4.00;89.42;100873.36;232683;1175;116388;-67
2021/03/31 04:00:56;;;;;;;37.90;28.47;;;;;;;4.05;88.33;100871.06;232610;1174;115075;-67
2021/03/31 04:06:00;;;;;;;48.63;31.65;;;;;;;4.08;88.79;100874.36;232535;1175;115608;-66
2021/03/31 04:11:05;;;;;;;48.40;31.55;;;;;;;4.08;88.61;100880.47;232991;1174;116192;-65
2021/03/31 04:16:12;;;;;;;40.43;28.18;;;;;;;4.06;88.61;100882.44;233220;1174;115722;-66
2021/03/31 04:21:18;;;;;;;41.38;29.48;;;;;;;4.04;87.79;100873.86;233683;1174;114876;-66
2021/03/31 04:26:23;;;;;;;40.95;27.95;;;;;;;4.01;87.12;100875.02;232508;1174;115282;-67
2021/03/31 04:31:29;;;;;;;38.23;26.10;;;;;;;4.01;87.22;100868.91;233154;1174;115244;-68
2021/03/31 04:36:32;;;;;;;32.80;22.85;;;;;;;3.99;88.66;100873.52;233021;1174;115446;-66
2021/03/31 04:41:36;;;;;;;40.23;29.50;;;;;;;4.10;88.43;100878.48;235128;1174;114617;-66
2021/03/31 04:46:41;;;;;;;36.17;27.67;;;;;;;4.21;88.47;100875.53;234880;1167;115098;-65
2021/03/31 04:51:45;;;;;;;40.58;27.68;;;;;;;4.38;87.93;100871.88;234846;1174;115166;-65
2021/03/31 04:56:48;;;;;;;45.77;28.83;;;;;;;4.58;86.78;100874.17;235223;1174;115220;-66
2021/03/31 05:01:52;;;;;;;58.93;35.90;;;;;;;4.81;86.41;100880.39;233795;1174;115628;-65
2021/03/31 05:06:55;;;;;;;44.95;31.10;;;;;;;4.97;85.43;100868.93;232808;1175;116148;-66
2021/03/31 05:12:01;;;;;;;41.30;27.58;;;;;;;5.03;86.04;100877.00;234136;1174;115625;-65
2021/03/31 05:17:04;;;;;;;28.77;21.30;;;;;;;5.23;85.78;100868.66;233978;1174;115796;-65
2021/03/31 05:22:08;;;;;;;46.70;31.43;;;;;;;5.54;85.51;100872.13;232806;1167;115513;-65
2021/03/31 05:27:12;;;;;;;37.25;29.23;;;;;;;5.94;86.50;100875.55;232685;1174;116038;-64
2021/03/31 05:32:15;;;;;;;37.87;29.97;;;;;;;6.34;87.73;100883.17;233133;1174;116219;-66
2021/03/31 05:37:19;;;;;;;59.60;34.15;;;;;;;6.75;85.79;100888.05;233196;1174;115628;-66
2021/03/31 05:42:23;;;;;;;48.70;31.97;;;;;;;7.12;84.71;100891.63;232613;1174;115569;-66
2021/03/31 05:47:37;;;;;;;49.90;33.85;;;;;;;7.34;84.08;100888.03;232513;1176;115421;-66
2021/03/31 05:52:42;;;;;;;47.50;36.68;;;;;;;7.41;83.89;100895.06;232721;1170;115744;-66
2021/03/31 05:57:46;;;;;;;45.63;33.00;;;;;;;7.58;84.06;100889.56;233064;1175;116374;-66
2021/03/31 06:02:51;;;;;;;58.57;35.37;;;;;;;7.82;84.02;100899.00;232430;1174;116782;-66
2021/03/31 06:07:54;;;;;;;50.25;31.73;;;;;;;8.02;82.94;100894.70;232756;1170;115151;-64
2021/03/31 06:13:02;;;;;;;45.58;30.38;;;;;;;8.32;83.02;100892.72;232768;1174;115327;-65
2021/03/31 06:18:08;;;;;;;47.63;30.47;;;;;;;8.62;82.30;100894.22;232739;1168;115415;-65
2021/03/31 06:28:28;;;;;;;55.85;35.00;;;;;;;9.47;83.31;100893.06;232508;1174;115335;-65
2021/03/31 06:33:50;;;;;;;55.95;39.13;;;;;;;9.84;83.06;100901.55;232715;1174;115921;-64
2021/03/31 06:38:53;;;;;;;53.53;35.43;;;;;;;10.07;82.39;100888.70;232414;1174;115325;-69
2021/03/31 06:44:48;;;;;;;60.45;40.15;;;;;;;10.32;82.25;100892.44;232402;1174;115114;-69
2021/03/31 06:49:26;;;;;;;56.27;38.23;;;;;;;10.71;81.35;100893.42;233367;1174;194697;-65
2021/03/31 06:54:39;;;;;;;59.40;40.20;;;;;;;10.92;81.02;100890.53;235103;1174;115686;-66
2021/03/31 06:59:42;;;;;;;60.15;41.80;;;;;;;11.14;81.04;100881.22;234438;1174;115751;-66
2021/03/31 07:04:45;;;;;;;56.55;39.88;;;;;;;11.52;81.04;100887.66;234122;1174;116268;-66
2021/03/31 07:10:04;;;;;;;56.15;38.20;;;;;;;11.97;80.91;100881.24;232529;1174;116252;-66
2021/03/31 07:15:09;;;;;;;47.40;36.60;;;;;;;12.48;79.15;100874.91;232340;1174;115917;-70
2021/03/31 07:20:14;;;;;;;49.85;34.70;;;;;;;13.21;76.86;100879.52;233658;1174;116053;-69
2021/03/31 07:25:17;;;;;;;49.77;37.00;;;;;;;14.18;72.56;100874.88;233940;1174;115950;-66
2021/03/31 07:30:23;;;;;;;48.40;32.58;;;;;;;14.80;72.17;100878.80;232705;1174;116071;-68
2021/03/31 07:35:43;;;;;;;42.70;32.20;;;;;;;15.11;71.86;100866.84;232956;1174;116513;-69
2021/03/31 07:40:51;;;;;;;36.63;28.48;;;;;;;15.33;71.17;100867.83;233178;1174;118078;-68
2021/03/31 07:45:57;;;;;;;36.85;26.18;;;;;;;15.57;70.20;100865.94;232746;1174;116297;-69
2021/03/31 07:51:19;;;;;;;33.68;24.63;;;;;;;15.67;69.73;100857.22;232688;1174;116448;-69
2021/03/31 07:56:30;;;;;;;33.90;26.00;;;;;;;15.65;71.10;100852.09;233053;1174;116694;-68
2021/03/31 08:01:38;;;;;;;35.20;28.50;;;;;;;15.55;70.58;100854.58;232548;1174;117361;-69
2021/03/31 08:06:44;;;;;;;37.10;27.55;;;;;;;15.50;71.79;100857.16;232409;1174;117251;-68
2021/03/31 08:11:53;;;;;;;;;;;;;;;15.48;70.56;100860.08;232620;1174;117052;-67
2021/03/31 08:17:03;;;;;;;30.95;17.95;;;;;;;15.29;69.75;100853.23;234198;1174;103005;-67
2021/03/31 08:22:32;;;;;;;27.13;22.45;;;;;;;15.49;70.13;100844.78;232495;1174;116282;-68
2021/03/31 08:27:56;;;;;;;27.40;21.33;;;;;;;15.76;70.08;100853.09;232885;1167;115749;-66
2021/03/31 08:33:00;;;;;;;24.53;19.05;;;;;;;16.06;69.50;100850.12;233026;1174;115417;-70
2021/03/31 08:38:14;;;;;;;28.05;21.98;;;;;;;16.30;69.77;100835.44;232386;1174;116552;-69
2021/03/31 08:43:19;;;;;;;31.17;20.63;;;;;;;16.56;67.09;100828.55;234185;1170;117259;-69
2021/03/31 08:48:37;;;;;;;24.30;19.25;;;;;;;16.70;67.28;100839.83;235144;1174;117604;-66
2021/03/31 08:53:41;;;;;;;26.90;17.77;;;;;;;17.02;67.27;100837.30;234800;1174;116212;-67
2021/03/31 08:58:54;;;;;;;14.10;11.55;;;;;;;17.33;64.56;100828.50;234924;1174;117930;-68
2021/03/31 09:04:19;;;;;;;16.83;15.00;;;;;;;17.67;64.23;100828.35;235172;1173;115851;-67
2021/03/31 09:09:23;;;;;;;12.45;11.18;;;;;;;18.06;63.45;100816.27;235132;1174;116353;-67
2021/03/31 09:14:27;;;;;;;16.45;11.08;;;;;;;18.48;61.61;100813.61;235109;1174;115432;-68
2021/03/31 09:19:40;;;;;;;18.00;11.15;;;;;;;18.96;60.38;100809.02;233484;1174;116312;-67
2021/03/31 09:24:49;;;;;;;15.07;10.90;;;;;;;18.93;58.72;100812.27;233867;1176;116032;-71
2021/03/31 09:29:58;;;;;;;12.80;10.17;;;;;;;19.01;58.28;100802.82;232573;1174;116373;-67
2021/03/31 09:35:12;;;;;;;6.50;5.28;;;;;;;18.89;58.83;100807.65;233404;1174;115879;-69
2021/03/31 09:40:26;;;;;;;11.83;8.47;;;;;;;18.94;56.20;100794.98;233603;1174;116036;-66
2021/03/31 09:45:32;;;;;;;16.33;12.97;;;;;;;19.03;56.63;100793.38;233990;1174;115926;-65
2021/03/31 09:50:35;;;;;;;27.00;13.20;;;;;;;19.01;56.94;100784.72;232720;1174;116055;-69
2021/03/31 09:55:38;;;;;;;15.20;11.55;;;;;;;19.11;57.17;100786.65;232771;1174;116872;-67
2021/03/31 10:00:42;;;;;;;15.33;10.90;;;;;;;19.06;55.94;100776.63;232563;1174;118524;-68
2021/03/31 10:05:45;;;;;;;15.70;10.60;;;;;;;19.12;56.95;100774.77;232292;1174;115948;-67
2021/03/31 10:10:54;;;;;;;15.27;12.00;;;;;;;19.13;57.51;100762.88;232474;1174;116618;-65
2021/03/31 10:16:04;;;;;;;14.33;10.50;;;;;;;19.36;56.54;100769.67;232368;1174;117275;-71
2021/03/31 10:21:08;;;;;;;12.53;11.00;;;;;;;19.64;56.48;100754.86;232842;1174;116535;-65
2021/03/31 10:26:23;;;;;;;12.10;8.83;;;;;;;19.81;55.12;100756.23;232620;1174;116080;-66
2021/03/31 10:31:28;;;;;;;17.00;11.30;;;;;;;20.08;55.65;100744.30;233574;1174;117011;-64
2021/03/31 10:52:44;;;;;;;16.87;12.10;;;;;;;20.56;51.36;100723.88;235083;1174;116642;-65
2021/03/31 10:57:47;;;;;;;23.40;21.15;;;;;;;20.73;51.60;100718.14;234687;1174;117411;-65
2021/03/31 11:02:51;;;;;;;10.97;9.73;;;;;;;20.81;51.19;100712.12;232868;1174;116157;-64
2021/03/31 11:07:54;;;;;;;12.63;9.03;;;;;;;20.73;52.80;100701.88;234668;1174;115281;-65
2021/03/31 11:12:57;;;;;;;9.50;8.30;;;;;;;20.80;49.27;100694.23;232625;1174;115543;-63
2021/03/31 11:28:30;;;;;;;15.75;9.60;;;;;;;21.07;48.98;100677.57;234173;1174;115540;-63
2021/03/31 11:33:34;;;;;;;12.77;9.63;;;;;;;21.04;50.68;100668.09;233026;1174;115799;-65
2021/03/31 11:38:38;;;;;;;14.17;10.87;;;;;;;21.14;50.03;100654.45;232427;1174;115990;-66
2021/03/31 11:43:41;;;;;;;6.93;6.00;;;;;;;21.17;49.27;100656.59;233090;1174;117559;-69
2021/03/31 11:48:45;;;;;;;15.15;9.63;;;;;;;21.15;48.05;100650.64;233196;1174;116046;-66
2021/03/31 11:53:48;;;;;;;12.93;9.20;;;;;;;21.05;47.20;100639.09;232476;1174;115300;-66
2021/03/31 11:58:53;;;;;;;10.23;8.28;;;;;;;21.16;47.22;100629.77;232504;1174;115887;-66
2021/03/31 12:03:56;;;;;;;12.10;8.30;;;;;;;21.21;47.30;100634.38;233027;1174;116081;-67
2021/03/31 12:08:59;;;;;;;11.05;7.43;;;;;;;21.26;48.21;100635.15;232593;1174;116151;-65
2021/03/31 12:14:02;;;;;;;17.15;6.80;;;;;;;21.21;42.98;100631.66;232674;1174;116721;-66
2021/03/31 12:19:05;;;;;;;6.83;6.10;;;;;;;21.23;42.99;100616.73;232487;1174;115532;-67
2021/03/31 12:24:08;;;;;;;10.58;6.63;;;;;;;21.27;45.76;100614.27;232384;1174;115499;-68
2021/03/31 12:29:12;;;;;;;12.23;7.60;;;;;;;21.17;42.36;100609.70;232533;1174;115572;-67
2021/03/31 12:34:15;;;;;;;5.85;5.35;;;;;;;21.12;43.43;100607.83;232342;1174;116119;-70
2021/03/31 12:39:19;;;;;;;12.08;6.25;;;;;;;21.08;41.82;100595.96;232657;1172;115483;-67
2021/03/31 12:44:23;;;;;;;11.45;7.15;;;;;;;21.02;41.95;100590.86;233219;1174;115360;-67
2021/03/31 12:49:29;;;;;;;8.93;5.93;;;;;;;20.89;41.66;100586.88;232471;1174;115254;-66
2021/03/31 12:54:47;;;;;;;11.78;6.83;;;;;;;20.93;42.29;100577.09;232562;1174;115443;-66
2021/03/31 12:59:51;;;;;;;;;;;;;;;20.92;42.63;100585.50;232653;1174;115788;-67
2021/03/31 13:05:16;;;;;;;13.60;6.95;;;;;;;20.92;42.93;100572.77;234959;1174;103088;-67
2021/03/31 13:10:20;;;;;;;10.18;7.60;;;;;;;20.97;41.47;100570.02;234966;1173;115551;-68
2021/03/31 13:16:10;;;;;;;12.48;8.03;;;;;;;20.92;40.08;100564.63;233638;1170;115278;-69
2021/03/31 13:27:02;;;;;;;16.10;8.27;;;;;;;20.87;40.38;100553.02;234316;1174;115582;-69
2021/03/31 13:42:23;;;;;;;12.87;8.20;;;;;;;20.88;42.27;100522.92;232946;1174;117573;-69
2021/03/31 13:47:30;;;;;;;14.75;10.85;;;;;;;20.82;42.77;100518.63;232393;1174;116462;-66
2021/03/31 13:52:39;;;;;;;13.23;9.33;;;;;;;20.54;40.79;100514.78;232333;1174;115719;-66
2021/03/31 13:57:47;;;;;;;11.85;7.53;;;;;;;20.47;39.91;100508.90;232433;1168;115793;-68
2021/03/31 14:02:52;;;;;;;10.20;7.57;;;;;;;20.53;41.35;100501.52;233484;1174;115324;-70
2021/03/31 14:07:57;;;;;;;11.50;10.08;;;;;;;20.56;43.81;100496.35;232897;1174;115554;-67
2021/03/31 14:13:21;;;;;;;11.73;7.95;;;;;;;20.59;40.73;100484.15;233174;1174;115788;-68
2021/03/31 14:18:46;;;;;;;13.30;8.23;;;;;;;20.48;41.76;100475.31;232459;1174;116025;-69
2021/03/31 14:23:50;;;;;;;17.70;9.80;;;;;;;20.44;40.42;100476.96;232300;1174;183581;-68
2021/03/31 14:28:53;;;;;;;15.08;10.83;;;;;;;20.41;43.52;100472.91;232366;1174;116309;-68
2021/03/31 14:33:58;;;;;;;11.10;9.63;;;;;;;20.42;43.20;100458.28;232452;1174;116379;-69
2021/03/31 14:39:21;;;;;;;15.40;10.40;;;;;;;20.34;43.47;100460.75;232862;1174;115914;-70
2021/03/31 14:44:44;;;;;;;13.60;10.50;;;;;;;20.28;42.79;100457.26;232392;1174;115364;-72
2021/03/31 14:49:47;;;;;;;13.85;9.78;;;;;;;20.24;44.79;100442.66;234216;1171;115704;-66
2021/03/31 15:00:35;;;;;;;14.25;9.68;;;;;;;20.12;42.71;100429.50;232856;1176;115683;-66
2021/03/31 15:05:39;;;;;;;14.95;10.53;;;;;;;20.07;40.55;100417.89;235035;1174;115710;-66
2021/03/31 15:10:44;;;;;;;13.13;10.28;;;;;;;20.06;41.96;100413.56;234938;1170;116660;-69
2021/03/31 15:16:09;;;;;;;10.15;7.73;;;;;;;19.98;42.84;100404.14;232735;1174;116914;-68
2021/03/31 15:21:31;;;;;;;12.37;9.63;;;;;;;19.88;43.84;100401.48;234034;1174;115297;-67
2021/03/31 15:26:59;;;;;;;14.43;9.43;;;;;;;19.81;43.21;100392.89;232984;1174;115365;-66
2021/03/31 15:32:06;;;;;;;10.57;8.73;;;;;;;19.71;43.28;100390.23;233735;1174;115748;-67
2021/03/31 15:37:14;;;;;;;12.30;8.33;;;;;;;19.63;43.62;100386.22;232697;1174;117347;-69
2021/03/31 15:42:22;;;;;;;18.27;10.33;;;;;;;19.57;44.15;100376.50;232693;1174;115839;-67
2021/03/31 15:47:38;;;;;;;11.40;7.80;;;;;;;19.47;43.92;100374.66;233358;1174;116858;-68
2021/03/31 15:52:46;;;;;;;10.73;7.83;;;;;;;19.38;44.02;100372.80;232433;1174;117196;-69
2021/03/31 15:57:53;;;;;;;12.87;8.63;;;;;;;19.25;44.19;100368.00;232541;1174;114754;-68
2021/03/31 16:03:20;;;;;;;14.43;8.98;;;;;;;19.12;45.26;100363.98;232381;1174;115927;-69
2021/03/31 16:08:27;;;;;;;13.73;8.38;;;;;;;18.97;45.18;100356.72;232658;1174;115405;-69
2021/03/31 16:13:34;;;;;;;8.58;6.93;;;;;;;18.85;46.75;100358.94;232488;1174;115932;-69
2021/03/31 16:18:42;;;;;;;14.65;7.18;;;;;;;18.68;47.46;100342.22;232530;1174;116229;-68
2021/03/31 16:23:49;;;;;;;9.00;6.73;;;;;;;18.50;48.62;100347.08;232461;1174;115620;-69
2021/03/31 16:29:12;;;;;;;7.03;6.33;;;;;;;18.32;47.26;100341.45;232513;1174;115518;-69
2021/03/31 16:34:22;;;;;;;9.53;5.77;;;;;;;18.13;49.31;100341.16;233297;1174;115440;-70
2021/03/31 16:39:30;;;;;;;6.45;5.38;;;;;;;17.93;51.03;100331.19;232412;1174;115028;-68
2021/03/31 16:44:39;;;;;;;9.30;5.37;;;;;;;17.68;52.62;100323.88;232485;1174;115055;-68
2021/03/31 16:49:47;;;;;;;7.87;5.40;;;;;;;17.45;52.13;100321.61;232572;1175;114758;-69
2021/03/31 16:54:54;;;;;;;12.10;4.63;;;;;;;17.18;53.40;100311.84;232529;1174;115592;-67
2021/03/31 17:00:05;;;;;;;7.17;5.90;;;;;;;16.92;53.30;100315.50;233332;1174;116021;-68
2021/03/31 17:05:12;;;;;;;8.13;5.08;;;;;;;16.64;54.05;100307.82;234088;1174;114987;-67
2021/03/31 17:10:23;;;;;;;7.80;5.27;;;;;;;16.35;55.25;100300.08;235020;1174;116074;-68
2021/03/31 17:15:32;;;;;;;8.17;4.53;;;;;;;16.10;57.03;100305.28;234786;1174;115520;-68
2021/03/31 17:20:41;;;;;;;8.93;5.53;;;;;;;15.83;60.89;100291.88;234960;1175;114699;-69
2021/03/31 17:25:49;;;;;;;6.17;5.53;;;;;;;15.50;61.38;100288.32;234979;1174;115324;-65
2021/03/31 17:30:57;;;;;;;11.40;5.85;;;;;;;15.24;60.38;100288.31;232746;1171;115640;-67
2021/03/31 17:36:06;;;;;;;8.38;5.48;;;;;;;14.98;60.61;100287.20;233893;1174;115869;-65
2021/03/31 17:41:14;;;;;;;8.30;6.33;;;;;;;14.76;61.67;100289.86;233608;1174;115474;-68
2021/03/31 17:46:21;;;;;;;14.80;6.45;;;;;;;14.55;61.25;100287.97;233096;1174;212555;-67
2021/03/31 17:51:50;;;;;;;10.05;6.50;;;;;;;14.31;63.79;100287.34;232353;1170;116449;-69
2021/03/31 17:56:58;;;;;;;11.93;6.70;;;;;;;14.05;66.13;100288.81;233140;1174;116091;-66
2021/03/31 18:02:07;;;;;;;13.18;9.35;;;;;;;13.88;65.94;100290.66;232493;1174;117347;-68
2021/03/31 18:07:15;;;;;;;21.85;15.40;;;;;;;13.72;66.13;100287.73;232336;1174;116947;-68
2021/03/31 18:12:27;;;;;;;17.70;10.85;;;;;;;13.51;66.47;100291.09;233107;1171;118237;-71
2021/03/31 18:17:36;;;;;;;15.10;9.03;;;;;;;13.36;67.41;100288.14;232754;1174;115597;-67
2021/03/31 18:22:47;;;;;;;20.53;10.07;;;;;;;13.20;67.84;100284.35;233322;1175;116218;-70
2021/03/31 18:27:56;;;;;;;14.80;9.73;;;;;;;13.04;68.46;100277.88;232974;1176;115331;-69
2021/03/31 18:33:05;;;;;;;18.43;12.18;;;;;;;12.92;69.09;100277.08;232445;1174;115252;-68
2021/03/31 18:38:14;;;;;;;29.18;12.55;;;;;;;12.80;69.74;100274.45;232412;1174;116553;-71
2021/03/31 18:43:30;;;;;;;28.60;17.83;;;;;;;12.65;70.02;100278.65;232441;1174;115361;-69
2021/03/31 18:48:40;;;;;;;44.08;22.05;;;;;;;12.38;70.00;100281.81;232527;1174;115271;-70
2021/03/31 18:53:48;;;;;;;17.00;11.00;;;;;;;12.13;71.46;100278.56;232720;1174;115207;-71
2021/03/31 18:58:57;;;;;;;11.43;8.50;;;;;;;11.86;71.98;100277.38;232464;1174;117353;-70
2021/03/31 19:04:05;;;;;;;21.75;11.33;;;;;;;11.73;72.28;100284.50;232379;1174;115747;-71
2021/03/31 19:14:53;;;;;;;21.53;12.63;;;;;;;11.62;71.94;100269.25;234300;1174;115873;-69
2021/03/31 19:20:04;;;;;;;20.15;11.35;;;;;;;11.47;71.95;100271.55;234933;1174;115716;-70
2021/03/31 19:25:14;;;;;;;24.73;12.23;;;;;;;11.32;73.21;100257.78;234555;1174;116243;-70
2021/03/31 19:30:22;;;;;;;21.58;13.63;;;;;;;11.12;73.11;100256.21;234943;1174;116598;-70
2021/03/31 19:35:32;;;;;;;20.55;11.30;;;;;;;10.90;73.92;100248.92;235112;1174;115675;-68
2021/03/31 19:40:43;;;;;;;17.20;10.70;;;;;;;10.70;75.20;100235.84;234861;1174;115976;-67
2021/03/31 19:45:52;;;;;;;24.60;14.00;;;;;;;10.52;76.23;100247.30;234131;1174;116241;-72
2021/03/31 19:51:03;;;;;;;33.00;16.60;;;;;;;10.36;75.66;100237.23;233081;1174;117741;-68
2021/03/31 19:56:13;;;;;;;30.73;18.30;;;;;;;10.28;76.11;100233.00;232919;1174;116943;-70
2021/03/31 20:01:21;;;;;;;30.83;16.97;;;;;;;10.26;75.37;100234.25;232563;1174;116486;-68
2021/03/31 20:06:29;;;;;;;37.13;18.48;;;;;;;10.23;75.70;100224.85;232666;1175;116648;-68
2021/03/31 20:11:39;;;;;;;34.40;19.78;;;;;;;10.18;76.29;100227.32;232743;1174;116528;-72
2021/03/31 20:16:48;;;;;;;35.55;19.10;;;;;;;10.09;75.01;100225.97;232385;1174;116629;-72
2021/03/31 20:21:58;;;;;;;45.13;23.20;;;;;;;9.87;76.87;100216.75;232536;1174;119975;-73
2021/03/31 20:27:08;;;;;;;43.13;22.40;;;;;;;9.66;76.74;100213.45;232456;1174;115701;-71
2021/03/31 20:32:17;;;;;;;37.75;19.03;;;;;;;9.44;78.19;100210.35;232925;1174;116133;-70
2021/03/31 20:37:28;;;;;;;36.30;22.10;;;;;;;9.29;78.54;100204.50;234033;1174;115195;-71
2021/03/31 20:42:37;;;;;;;31.28;18.80;;;;;;;9.20;78.97;100196.98;232386;1174;116575;-71
2021/03/31 20:47:46;;;;;;;26.90;17.77;;;;;;;9.07;78.54;100193.40;232254;1171;116571;-69
2021/03/31 20:52:54;;;;;;;30.03;17.53;;;;;;;9.03;79.61;100192.19;232429;1175;116621;-67
2021/03/31 20:58:02;;;;;;;31.30;19.05;;;;;;;8.88;79.18;100188.98;232474;1176;115741;-68
2021/03/31 21:03:10;;;;;;;29.95;21.40;;;;;;;8.87;78.30;100191.85;233380;1174;115377;-67
2021/03/31 21:08:19;;;;;;;38.83;24.20;;;;;;;8.78;78.94;100183.33;233702;1174;115288;-69
2021/03/31 21:13:29;;;;;;;34.28;18.78;;;;;;;8.68;79.97;100177.64;232618;1174;115066;-68
2021/03/31 21:18:31;;;;;;;41.03;23.78;;;;;;;8.60;80.57;100180.53;233682;1172;117719;-70
2021/03/31 21:23:40;;;;;;;40.83;25.20;;;;;;;8.50;80.20;100170.38;233579;1174;116498;-67
2021/03/31 21:28:49;;;;;;;53.68;33.88;;;;;;;8.48;80.39;100176.92;232486;1174;115599;-69
2021/03/31 21:34:06;;;;;;;62.35;31.63;;;;;;;8.54;79.48;100168.11;232628;1175;115875;-70
2021/03/31 21:39:16;;;;;;;60.58;32.95;;;;;;;8.50;79.82;100164.24;234276;1174;114940;-68
2021/03/31 21:44:25;;;;;;;56.63;30.87;;;;;;;8.36;80.56;100169.59;234361;1174;115237;-68
2021/03/31 21:49:35;;;;;;;53.38;34.60;;;;;;;8.32;79.59;100171.03;233562;1174;115053;-68
2021/03/31 21:54:39;;;;;;;64.60;38.00;;;;;;;8.28;80.21;100158.34;233786;1174;116131;-71
2021/03/31 21:59:44;;;;;;;67.37;40.00;;;;;;;8.17;80.56;100159.82;232650;1174;117047;-67
2021/03/31 22:04:47;;;;;;;55.30;34.85;;;;;;;8.08;80.96;100151.26;232883;1174;115504;-68
2021/03/31 22:09:51;;;;;;;69.03;40.57;;;;;;;8.04;81.01;100155.35;232579;1174;115602;-67
2021/03/31 22:14:55;;;;;;;61.15;37.43;;;;;;;8.00;80.81;100153.31;233241;1174;115737;-69
2021/03/31 22:20:00;;;;;;;55.33;33.90;;;;;;;7.91;80.98;100151.92;232680;1174;115565;-69
2021/03/31 22:25:10;;;;;;;44.23;27.08;;;;;;;7.75;81.22;100140.70;232568;1174;115121;-70
2021/03/31 22:30:19;;;;;;;46.15;28.63;;;;;;;7.61;81.94;100141.76;233029;1174;115536;-69
2021/03/31 22:35:28;;;;;;;65.10;40.88;;;;;;;7.59;81.54;100135.02;232773;1174;116461;-70
2021/03/31 22:40:40;;;;;;;76.93;42.50;;;;;;;7.57;81.95;100127.27;232604;1174;115482;-70
2021/03/31 22:45:47;;;;;;;70.80;41.13;;;;;;;7.58;81.38;100133.39;232865;1174;116098;-71
2021/03/31 22:50:56;;;;;;;66.93;35.13;;;;;;;7.60;82.19;100126.05;233149;1174;115205;-65
2021/03/31 22:56:05;;;;;;;68.83;39.33;;;;;;;7.69;81.66;100122.95;232663;1174;115344;-68
2021/03/31 23:02:04;;;;;;;60.07;37.93;;;;;;;7.66;81.65;100098.66;232974;1174;115345;-65
2021/03/31 23:06:42;;;;;;;64.40;38.43;;;;;;;7.71;81.29;100107.64;233542;1174;115466;-69
2021/03/31 23:11:47;;;;;;;71.37;39.50;;;;;;;7.58;80.79;100107.67;232496;1174;116368;-65
2021/03/31 23:16:51;;;;;;;69.87;38.17;;;;;;;7.48;81.35;100087.88;233047;1174;115793;-69
2021/03/31 23:21:55;;;;;;;55.63;35.53;;;;;;;7.39;81.56;100084.62;232744;1174;115449;-65
2021/03/31 23:26:58;;;;;;;60.83;36.68;;;;;;;7.30;81.76;100073.42;232594;1174;115351;-65
2021/03/31 23:32:03;;;;;;;66.85;37.75;;;;;;;7.32;82.77;100065.27;233965;1174;115392;-67
2021/03/31 23:37:07;;;;;;;61.28;41.25;;;;;;;7.36;81.28;100061.16;235028;1174;115200;-66
2021/03/31 23:42:10;;;;;;;68.75;36.95;;;;;;;7.34;81.28;100048.10;235027;1174;115486;-68
2021/03/31 23:47:13;;;;;;;67.95;38.75;;;;;;;7.42;81.50;100050.55;235050;1174;115543;-67
2021/03/31 23:52:17;;;;;;;65.08;39.55;;;;;;;7.37;81.26;100041.58;235089;1174;116119;-68
2021/03/31 23:57:21;;;;;;;67.45;36.05;;;;;;;7.24;80.63;100041.61;233365;1174;115526;-67
